Time;durP1;ratioP1;P1;durP2;ratioP2;P2;SDS_P1;SDS_P2;PMS_P1;PMS_P2;Temp;Humidity;BMP_temperature;BMP_pressure;BME280_temperature;BME280_humidity;BME280_pressure;Samples;Min_cycle;Max_cycle;Signal;HPM_P1;HPM_P2
2023/10/23 00:02:02;;;;;;;0.95;0.30;;;24.10;99.90;;;;;;5078529;28;20192;-73
2023/10/23 00:04:33;;;;;;;0.80;0.40;;;24.30;99.90;;;;;;5084255;28;20663;-84
2023/10/23 00:07:04;;;;;;;1.40;0.40;;;24.40;99.90;;;;;;5076996;28;20199;-83
2023/10/23 00:09:35;;;;;;;0.80;0.32;;;24.60;99.90;;;;;;5093874;28;20188;-84
2023/10/23 00:12:07;;;;;;;2.95;0.63;;;24.70;99.90;;;;;;5080882;28;20205;-85
2023/10/23 00:14:38;;;;;;;2.45;0.50;;;24.90;99.90;;;;;;5067239;28;20192;-80
2023/10/23 00:17:11;;;;;;;2.03;0.40;;;25.00;99.90;;;;;;5075291;28;20207;-74
2023/10/23 00:19:42;;;;;;;1.05;0.45;;;24.80;99.90;;;;;;5080635;28;20559;-81
2023/10/23 00:22:12;;;;;;;2.08;0.40;;;24.90;99.90;;;;;;5075237;28;20316;-85
2023/10/23 00:24:43;;;;;;;1.58;0.45;;;25.10;99.90;;;;;;5079454;28;20257;-82
2023/10/23 00:27:14;;;;;;;1.10;0.32;;;25.30;99.90;;;;;;5075492;28;20279;-79
2023/10/23 00:29:45;;;;;;;1.80;1.27;;;25.30;99.90;;;;;;5077714;28;20192;-84
2023/10/23 00:32:18;;;;;;;1.10;0.50;;;25.40;99.90;;;;;;5076027;28;20200;-82
2023/10/23 00:34:48;;;;;;;1.38;0.65;;;25.50;99.90;;;;;;5074199;28;20668;-82
2023/10/23 00:37:19;;;;;;;2.50;0.52;;;25.60;99.90;;;;;;5077369;28;20227;-82
2023/10/23 00:39:50;;;;;;;2.65;0.82;;;25.60;99.90;;;;;;5081630;28;20192;-82
2023/10/23 00:42:21;;;;;;;2.67;0.60;;;25.60;99.90;;;;;;5081408;28;20192;-83
2023/10/23 00:44:52;;;;;;;3.03;0.65;;;25.60;99.90;;;;;;5079024;28;20212;-81
2023/10/23 00:47:25;;;;;;;2.55;0.40;;;25.80;99.90;;;;;;5076905;28;20285;-84
2023/10/23 00:49:59;;;;;;;0.50;0.40;;;25.90;99.90;;;;;;5077104;28;20288;-73
2023/10/23 00:52:30;;;;;;;1.77;0.50;;;26.20;99.90;;;;;;5079205;28;20674;-74
2023/10/23 00:55:02;;;;;;;1.77;0.40;;;26.30;99.90;;;;;;5079784;28;20200;-74
2023/10/23 00:57:36;;;;;;;2.22;0.50;;;26.50;99.90;;;;;;5072351;28;20197;-84
2023/10/23 01:00:08;;;;;;;1.67;0.43;;;26.60;99.90;;;;;;5082604;28;20305;-74
2023/10/23 01:02:41;;;;;;;2.15;0.52;;;26.80;99.90;;;;;;5075411;28;20275;-73
2023/10/23 01:05:12;;;;;;;0.80;0.40;;;26.90;99.90;;;;;;5074462;28;20219;-75
2023/10/23 01:07:43;;;;;;;1.00;0.40;;;27.10;99.90;;;;;;5081670;28;20204;-72
2023/10/23 01:10:17;;;;;;;3.28;0.68;;;27.00;99.90;;;;;;5079929;28;20606;-74
2023/10/23 01:12:48;;;;;;;2.70;0.77;;;27.10;99.90;;;;;;5073257;28;20542;-73
2023/10/23 01:15:19;;;;;;;2.28;0.50;;;27.30;99.90;;;;;;5073035;28;20189;-77
2023/10/23 01:17:52;;;;;;;3.08;0.50;;;27.40;99.90;;;;;;5082047;28;20240;-80
2023/10/23 01:20:23;;;;;;;1.65;0.50;;;27.40;99.90;;;;;;5082064;28;20607;-76
2023/10/23 01:22:58;;;;;;;2.20;0.50;;;27.20;99.90;;;;;;5085539;28;20246;-73
2023/10/23 01:25:31;;;;;;;1.13;0.60;;;27.00;99.00;;;;;;5075467;28;20298;-76
2023/10/23 01:28:02;;;;;;;1.27;0.70;;;27.00;99.30;;;;;;5083698;28;20192;-73
2023/10/23 01:30:33;;;;;;;2.55;0.73;;;27.20;99.80;;;;;;5083274;28;20225;-79
2023/10/23 01:33:03;;;;;;;3.05;0.60;;;27.20;98.90;;;;;;5085119;28;20200;-79
2023/10/23 01:35:34;;;;;;;2.45;1.00;;;27.20;99.20;;;;;;5091037;28;20210;-74
2023/10/23 01:38:05;;;;;;;1.33;0.70;;;27.30;98.20;;;;;;5075774;28;20283;-75
2023/10/23 01:40:48;;;;;;;1.40;0.70;;;27.30;97.30;;;;;;5075694;28;20201;-72
2023/10/23 01:43:18;;;;;;;2.83;0.60;;;27.30;98.80;;;;;;5074269;28;20279;-76
2023/10/23 01:45:51;;;;;;;1.75;0.80;;;27.40;98.30;;;;;;5078320;28;20211;-80
2023/10/23 01:48:22;;;;;;;3.85;1.10;;;27.60;97.50;;;;;;5080094;28;20192;-78
2023/10/23 01:50:52;;;;;;;3.15;0.73;;;27.70;97.10;;;;;;5077397;28;20250;-78
2023/10/23 01:53:23;;;;;;;4.00;0.63;;;27.60;96.30;;;;;;5077294;28;21613;-75
2023/10/23 01:55:56;;;;;;;2.63;0.60;;;27.70;95.20;;;;;;5076786;28;20216;-74
2023/10/23 01:58:27;;;;;;;2.65;0.40;;;27.50;96.90;;;;;;5075993;28;20250;-77
2023/10/23 02:00:58;;;;;;;3.72;0.60;;;27.50;97.00;;;;;;5083932;28;20728;-76
2023/10/23 02:03:28;;;;;;;2.90;0.52;;;27.50;97.70;;;;;;5078703;28;20219;-74
2023/10/23 02:05:59;;;;;;;2.00;0.43;;;27.40;96.70;;;;;;5087035;28;20223;-73
2023/10/23 02:08:30;;;;;;;1.83;0.70;;;27.40;96.20;;;;;;5084976;28;20200;-74
2023/10/23 02:11:03;;;;;;;3.90;0.65;;;27.40;95.60;;;;;;5084938;28;20185;-73
2023/10/23 02:13:34;;;;;;;1.33;0.50;;;27.30;96.70;;;;;;5079427;28;20207;-82
2023/10/23 02:16:05;;;;;;;2.08;0.52;;;27.40;95.70;;;;;;5077307;28;20275;-86
2023/10/23 02:18:36;;;;;;;2.88;1.00;;;27.50;96.20;;;;;;5076709;28;20286;-87
2023/10/23 02:21:06;;;;;;;2.72;0.55;;;27.60;96.70;;;;;;5081904;28;20714;-85
2023/10/23 02:23:39;;;;;;;4.88;0.90;;;27.60;95.80;;;;;;5084528;28;20283;-74
2023/10/23 02:26:12;;;;;;;2.53;0.45;;;27.70;95.50;;;;;;5081908;28;20265;-74
2023/10/23 02:28:42;;;;;;;1.00;0.57;;;27.50;95.10;;;;;;5072059;28;20234;-75
2023/10/23 02:31:13;;;;;;;2.88;0.68;;;27.60;96.40;;;;;;5079399;28;20243;-75
2023/10/23 02:33:44;;;;;;;2.75;0.60;;;27.70;95.70;;;;;;5083608;28;20189;-74
2023/10/23 02:36:15;;;;;;;4.68;0.80;;;27.70;93.80;;;;;;5081896;28;20199;-77
2023/10/23 02:38:46;;;;;;;1.83;0.70;;;27.70;94.10;;;;;;5084001;28;20192;-84
2023/10/23 02:41:19;;;;;;;1.60;0.50;;;27.80;93.60;;;;;;5085249;28;20193;-77
2023/10/23 02:43:50;;;;;;;1.33;0.47;;;27.70;92.80;;;;;;5082118;28;20205;-81
2023/10/23 02:46:21;;;;;;;1.15;0.45;;;27.80;93.70;;;;;;5084102;28;20212;-81
2023/10/23 02:48:52;;;;;;;3.38;0.70;;;27.90;94.10;;;;;;5086909;28;20199;-83
2023/10/23 02:51:23;;;;;;;2.78;0.55;;;27.90;94.10;;;;;;5086059;28;20196;-81
2023/10/23 02:53:54;;;;;;;1.73;0.70;;;27.90;93.50;;;;;;5087102;28;20263;-82
2023/10/23 02:56:26;;;;;;;4.13;0.68;;;27.90;92.80;;;;;;5092006;28;20200;-82
2023/10/23 02:58:57;;;;;;;2.13;0.68;;;28.00;92.70;;;;;;5084993;28;20315;-86
2023/10/23 03:01:31;;;;;;;4.88;0.68;;;28.20;93.80;;;;;;5079797;28;20885;-80
2023/10/23 03:04:02;;;;;;;1.02;0.50;;;28.20;92.90;;;;;;5076099;28;20196;-82
2023/10/23 03:06:33;;;;;;;1.25;0.45;;;28.10;92.40;;;;;;5080425;28;20224;-77
2023/10/23 03:09:04;;;;;;;1.25;0.50;;;28.00;92.40;;;;;;5075237;28;20673;-80
2023/10/23 03:11:37;;;;;;;1.88;0.47;;;28.00;93.40;;;;;;5073890;28;20284;-88
2023/10/23 03:14:08;;;;;;;1.02;0.45;;;28.10;92.90;;;;;;5077796;28;20199;-84
2023/10/23 03:16:39;;;;;;;2.00;0.80;;;28.20;91.90;;;;;;5079579;28;20209;-81
2023/10/23 03:19:10;;;;;;;1.73;0.63;;;28.20;92.00;;;;;;5078200;28;20204;-82
2023/10/23 03:21:41;;;;;;;1.55;0.45;;;28.30;92.90;;;;;;5074171;28;20713;-79
2023/10/23 03:24:12;;;;;;;3.00;0.60;;;28.30;92.70;;;;;;5082006;28;20645;-78
2023/10/23 03:26:45;;;;;;;4.15;0.60;;;28.40;91.70;;;;;;5071519;28;20223;-84
2023/10/23 03:29:16;;;;;;;1.30;0.68;;;28.40;91.70;;;;;;5083385;28;20291;-78
2023/10/23 03:31:46;;;;;;;3.75;0.70;;;28.40;91.70;;;;;;5077218;28;20201;-87
2023/10/23 03:34:17;;;;;;;0.73;0.40;;;28.40;92.20;;;;;;5077094;28;20189;-82
2023/10/23 03:36:48;;;;;;;1.17;0.70;;;28.40;92.30;;;;;;5079869;28;20192;-78
2023/10/23 03:39:19;;;;;;;1.77;0.80;;;28.40;91.30;;;;;;5075764;28;20284;-78
2023/10/23 03:41:52;;;;;;;2.03;0.68;;;28.40;91.10;;;;;;5080559;28;20204;-83
2023/10/23 03:44:22;;;;;;;1.90;0.60;;;28.50;91.90;;;;;;5084997;28;20204;-85
2023/10/23 03:46:53;;;;;;;1.73;0.40;;;28.40;90.90;;;;;;5076365;28;20216;-78
2023/10/23 03:49:24;;;;;;;3.78;0.60;;;28.30;91.10;;;;;;5080541;28;20208;-83
2023/10/23 03:51:55;;;;;;;1.25;0.40;;;28.50;92.00;;;;;;5080450;28;20659;-79
2023/10/23 03:54:26;;;;;;;1.30;0.57;;;28.50;91.80;;;;;;5076915;28;20561;-83
2023/10/23 03:56:58;;;;;;;1.55;0.50;;;28.60;92.10;;;;;;5076409;28;20239;-79
2023/10/23 03:59:29;;;;;;;3.95;0.82;;;28.60;91.10;;;;;;5069850;28;20596;-79
2023/10/23 04:02:00;;;;;;;2.70;0.90;;;28.50;94.30;;;;;;5072373;28;20200;-85
2023/10/23 04:04:31;;;;;;;3.10;1.10;;;28.40;97.70;;;;;;5075165;28;20327;-84
2023/10/23 04:07:02;;;;;;;3.00;0.90;;;28.40;97.70;;;;;;5075433;28;20581;-86
2023/10/23 04:09:33;;;;;;;3.80;0.88;;;28.20;98.10;;;;;;5077758;28;20618;-74
2023/10/23 04:12:06;;;;;;;3.33;1.00;;;28.10;98.90;;;;;;5073911;28;20196;-74
2023/10/23 04:14:37;;;;;;;2.38;0.95;;;27.80;99.40;;;;;;5075055;28;20283;-83
2023/10/23 04:17:08;;;;;;;2.33;0.70;;;27.50;99.30;;;;;;5079100;28;20199;-83
2023/10/23 04:19:39;;;;;;;5.35;0.75;;;27.40;99.30;;;;;;5085706;28;20200;-84
2023/10/23 04:22:10;;;;;;;2.92;0.80;;;27.40;99.90;;;;;;5086115;28;20617;-86
2023/10/23 04:24:40;;;;;;;4.47;0.93;;;27.40;99.90;;;;;;5083201;28;20277;-80
2023/10/23 04:27:16;;;;;;;2.67;0.90;;;27.10;99.90;;;;;;5082162;28;20232;-85
2023/10/23 04:29:47;;;;;;;2.08;0.70;;;26.90;99.90;;;;;;5074241;28;20196;-74
2023/10/23 04:32:17;;;;;;;2.65;0.85;;;26.70;99.90;;;;;;5077093;28;20227;-82
2023/10/23 04:34:48;;;;;;;4.40;0.90;;;26.50;99.90;;;;;;5078934;28;20655;-82
2023/10/23 04:37:19;;;;;;;3.50;0.80;;;26.50;99.90;;;;;;5080367;28;20276;-85
2023/10/23 04:39:50;;;;;;;3.00;0.80;;;26.50;99.90;;;;;;5080546;28;20188;-80
2023/10/23 04:42:23;;;;;;;10.35;1.00;;;26.60;99.90;;;;;;5093338;28;20195;-82
2023/10/23 04:44:53;;;;;;;5.35;0.90;;;26.50;99.90;;;;;;5080632;28;20197;-87
2023/10/23 04:47:24;;;;;;;1.42;0.60;;;26.40;99.90;;;;;;5075984;28;20225;-81
2023/10/23 04:49:55;;;;;;;1.80;0.90;;;26.20;99.90;;;;;;5091209;28;20543;-79
2023/10/23 04:52:26;;;;;;;3.85;0.88;;;26.00;99.90;;;;;;5079420;28;20228;-80
2023/10/23 04:54:57;;;;;;;3.55;0.82;;;26.00;99.90;;;;;;5083168;28;20197;-83
2023/10/23 04:57:31;;;;;;;3.92;1.00;;;26.00;99.90;;;;;;5079740;28;20283;-80
2023/10/23 05:00:02;;;;;;;4.20;0.70;;;25.90;99.90;;;;;;5071285;28;20307;-80
2023/10/23 05:02:37;;;;;;;2.22;0.90;;;26.00;99.90;;;;;;5082731;28;20643;-77
2023/10/23 05:05:09;;;;;;;1.77;0.70;;;25.90;99.90;;;;;;5072924;28;20196;-77
2023/10/23 05:07:40;;;;;;;2.40;0.60;;;25.90;99.90;;;;;;5079605;28;20308;-80
2023/10/23 05:10:12;;;;;;;3.33;0.70;;;25.80;99.90;;;;;;5081937;28;20215;-82
2023/10/23 05:12:45;;;;;;;2.95;0.80;;;25.70;99.90;;;;;;5081658;28;20228;-81
2023/10/23 05:15:16;;;;;;;3.83;0.85;;;25.60;99.90;;;;;;5078701;28;20596;-82
2023/10/23 05:17:47;;;;;;;4.03;1.10;;;25.60;99.90;;;;;;5074372;28;20658;-79
2023/10/23 05:20:18;;;;;;;2.78;1.00;;;25.60;99.90;;;;;;5085285;28;20187;-80
2023/10/23 05:22:49;;;;;;;4.80;1.25;;;25.60;99.90;;;;;;5071768;28;20671;-82
2023/10/23 05:25:20;;;;;;;4.78;1.10;;;25.50;99.90;;;;;;5077664;28;20221;-84
2023/10/23 05:27:53;;;;;;;3.83;0.80;;;25.30;99.90;;;;;;5076029;28;20318;-82
2023/10/23 05:30:24;;;;;;;3.10;0.80;;;25.20;99.90;;;;;;5073897;28;20225;-78
2023/10/23 05:32:55;;;;;;;3.97;0.70;;;25.10;99.90;;;;;;5075835;28;20193;-85
2023/10/23 05:35:26;;;;;;;2.92;0.85;;;24.90;99.90;;;;;;5074953;28;21145;-83
2023/10/23 05:37:57;;;;;;;5.82;0.90;;;24.60;99.90;;;;;;5082691;28;20226;-78
2023/10/23 05:40:28;;;;;;;3.00;0.70;;;24.60;99.90;;;;;;5075144;28;20295;-78
2023/10/23 05:43:00;;;;;;;2.97;0.55;;;24.40;99.90;;;;;;5089249;28;20200;-77
2023/10/23 05:45:31;;;;;;;3.88;0.70;;;24.30;99.90;;;;;;5080393;28;20207;-79
2023/10/23 05:48:02;;;;;;;1.80;0.60;;;24.20;99.90;;;;;;5081704;28;20218;-80
2023/10/23 05:50:33;;;;;;;2.60;0.68;;;24.00;99.90;;;;;;5086621;28;20196;-84
2023/10/23 05:53:04;;;;;;;3.55;0.68;;;24.00;99.90;;;;;;5101128;28;20180;-84
2023/10/23 05:55:38;;;;;;;3.78;0.80;;;24.00;99.90;;;;;;5082395;28;20888;-74
2023/10/23 05:58:11;;;;;;;1.63;0.50;;;23.90;99.90;;;;;;5077836;28;20252;-77
2023/10/23 06:00:42;;;;;;;2.72;0.60;;;23.90;99.90;;;;;;5086514;28;20235;-74
2023/10/23 06:03:13;;;;;;;1.27;0.47;;;23.70;99.90;;;;;;5088045;28;20253;-75
2023/10/23 06:05:45;;;;;;;4.20;0.65;;;23.60;99.90;;;;;;5083549;28;20198;-79
2023/10/23 06:08:16;;;;;;;3.25;0.60;;;23.70;99.90;;;;;;5075076;28;20220;-77
2023/10/23 06:10:47;;;;;;;3.75;0.55;;;23.70;99.90;;;;;;5078072;28;20232;-83
2023/10/23 06:13:20;;;;;;;1.83;0.60;;;23.60;99.90;;;;;;5083710;28;20684;-81
2023/10/23 06:15:51;;;;;;;2.40;0.52;;;23.60;99.90;;;;;;5074550;28;20282;-76
2023/10/23 06:18:22;;;;;;;1.73;0.55;;;23.60;99.90;;;;;;5081000;28;20275;-79
2023/10/23 06:21:01;;;;;;;2.70;0.60;;;23.60;99.90;;;;;;5094213;28;20275;-80
2023/10/23 06:23:34;;;;;;;3.08;0.60;;;23.60;99.90;;;;;;5076434;28;20201;-77
2023/10/23 06:26:05;;;;;;;1.45;0.40;;;23.40;99.90;;;;;;5079472;28;20229;-81
2023/10/23 06:28:38;;;;;;;3.00;0.57;;;23.30;99.90;;;;;;5074984;28;20252;-79
2023/10/23 06:31:10;;;;;;;2.67;0.60;;;23.10;99.90;;;;;;5091811;28;20202;-73
2023/10/23 06:33:42;;;;;;;4.13;0.57;;;23.10;99.90;;;;;;5074294;28;20195;-77
2023/10/23 06:36:13;;;;;;;5.55;0.65;;;23.00;99.90;;;;;;5073613;28;20629;-76
2023/10/23 06:38:44;;;;;;;1.05;0.35;;;23.00;99.90;;;;;;5074474;28;20204;-77
2023/10/23 06:41:15;;;;;;;2.95;0.63;;;22.90;99.90;;;;;;5074929;28;20308;-74
2023/10/23 06:43:47;;;;;;;2.08;0.50;;;22.90;99.90;;;;;;5090088;28;20220;-77
2023/10/23 06:46:18;;;;;;;1.90;0.50;;;22.80;99.90;;;;;;5075563;28;20205;-75
2023/10/23 06:48:49;;;;;;;2.05;0.45;;;22.70;99.90;;;;;;5084312;28;20208;-73
2023/10/23 06:51:20;;;;;;;2.03;0.47;;;22.60;99.90;;;;;;5074778;28;20201;-74
2023/10/23 06:53:51;;;;;;;2.78;0.60;;;22.60;99.90;;;;;;5073183;28;20200;-75
2023/10/23 06:56:21;;;;;;;2.67;0.70;;;22.60;99.90;;;;;;5073316;28;20199;-73
2023/10/23 06:58:54;;;;;;;2.47;0.50;;;22.50;99.90;;;;;;5073124;28;20712;-76
2023/10/23 07:01:25;;;;;;;1.25;0.65;;;22.50;99.90;;;;;;5074224;28;20229;-76
2023/10/23 07:03:56;;;;;;;1.42;0.55;;;22.40;99.90;;;;;;5080894;28;20623;-74
2023/10/23 07:06:27;;;;;;;1.23;0.73;;;22.40;99.90;;;;;;5074421;28;20192;-72
2023/10/23 07:08:57;;;;;;;4.20;0.80;;;22.40;99.90;;;;;;5076475;28;20217;-72
2023/10/23 07:11:28;;;;;;;2.72;0.70;;;22.30;99.90;;;;;;5088376;28;20196;-72
2023/10/23 07:14:01;;;;;;;1.10;0.57;;;22.30;99.90;;;;;;5093534;28;20279;-72
2023/10/23 07:16:32;;;;;;;3.03;0.77;;;22.30;99.90;;;;;;5081555;28;20195;-74
2023/10/23 07:19:05;;;;;;;2.00;0.60;;;22.20;99.90;;;;;;5076153;28;20201;-73
2023/10/23 07:21:36;;;;;;;3.80;0.68;;;22.20;99.90;;;;;;5089380;28;20197;-72
2023/10/23 07:24:07;;;;;;;2.47;0.70;;;22.20;99.90;;;;;;5088197;28;20201;-79
2023/10/23 07:26:38;;;;;;;2.17;0.60;;;22.10;99.90;;;;;;5080475;28;20249;-76
2023/10/23 07:29:10;;;;;;;2.10;0.60;;;22.00;99.90;;;;;;5079436;28;20279;-79
2023/10/23 07:31:41;;;;;;;1.95;0.70;;;21.90;99.90;;;;;;5092110;28;20196;-73
2023/10/23 07:34:12;;;;;;;2.22;0.65;;;21.90;99.90;;;;;;5094789;28;20253;-75
2023/10/23 07:36:43;;;;;;;4.10;0.70;;;21.90;99.90;;;;;;5093034;28;20199;-78
2023/10/23 07:39:14;;;;;;;3.70;0.60;;;21.90;99.90;;;;;;5090997;28;20200;-77
2023/10/23 07:41:45;;;;;;;3.55;0.85;;;21.80;99.90;;;;;;5092564;28;20619;-74
2023/10/23 07:44:20;;;;;;;4.15;0.82;;;21.80;99.90;;;;;;5090489;28;20588;-78
2023/10/23 07:46:51;;;;;;;1.60;0.70;;;21.80;99.90;;;;;;5075834;28;20208;-81
2023/10/23 07:49:22;;;;;;;2.13;0.73;;;21.70;99.90;;;;;;5087699;28;20228;-75
2023/10/23 07:51:52;;;;;;;5.35;0.90;;;21.60;99.90;;;;;;5089597;28;20655;-77
2023/10/23 07:54:23;;;;;;;1.73;0.63;;;21.60;99.90;;;;;;5085712;28;20234;-75
2023/10/23 07:56:57;;;;;;;2.17;0.70;;;21.60;99.90;;;;;;5092021;28;20668;-73
2023/10/23 07:59:30;;;;;;;2.13;0.70;;;21.50;99.90;;;;;;5085960;28;20323;-79
2023/10/23 08:02:01;;;;;;;2.17;0.50;;;21.50;99.90;;;;;;5080105;28;20208;-81
2023/10/23 08:04:32;;;;;;;3.30;0.73;;;21.40;99.90;;;;;;5080583;28;20636;-76
2023/10/23 08:07:03;;;;;;;2.17;0.55;;;21.40;99.90;;;;;;5074226;28;20201;-79
2023/10/23 08:09:35;;;;;;;3.22;0.70;;;21.30;99.90;;;;;;5080115;28;20562;-83
2023/10/23 08:12:06;;;;;;;4.32;0.63;;;21.30;99.90;;;;;;5076032;28;20660;-82
2023/10/23 08:14:40;;;;;;;3.65;0.80;;;21.30;99.90;;;;;;5078129;28;20196;-78
2023/10/23 08:17:11;;;;;;;4.40;1.08;;;21.20;99.90;;;;;;5077844;28;20189;-77
2023/10/23 08:19:42;;;;;;;5.75;0.95;;;21.20;99.90;;;;;;5082394;28;20192;-81
2023/10/23 08:22:13;;;;;;;3.80;0.98;;;21.10;99.90;;;;;;5091254;28;20200;-81
2023/10/23 08:24:44;;;;;;;1.88;0.70;;;21.00;99.90;;;;;;5080076;28;20289;-82
2023/10/23 08:27:15;;;;;;;3.97;1.00;;;20.90;99.90;;;;;;5087017;28;20227;-77
2023/10/23 08:29:48;;;;;;;1.73;0.70;;;20.80;99.90;;;;;;5073214;28;20212;-83
2023/10/23 08:32:18;;;;;;;1.98;0.70;;;20.80;99.90;;;;;;5089797;28;20200;-79
2023/10/23 08:34:52;;;;;;;3.15;0.90;;;20.80;99.90;;;;;;5093511;28;20200;-79
2023/10/23 08:37:23;;;;;;;5.15;0.85;;;20.80;99.90;;;;;;5087383;28;20326;-77
2023/10/23 08:39:54;;;;;;;3.55;1.10;;;20.70;99.90;;;;;;5078431;28;20197;-73
2023/10/23 08:42:25;;;;;;;2.22;0.70;;;20.70;99.90;;;;;;5077383;28;20192;-74
2023/10/23 08:44:59;;;;;;;2.38;0.90;;;20.70;99.90;;;;;;5085359;28;20711;-79
2023/10/23 08:47:30;;;;;;;4.88;1.08;;;20.60;99.90;;;;;;5076311;28;20222;-85
2023/10/23 08:50:02;;;;;;;3.10;0.88;;;20.60;99.90;;;;;;5083798;28;20661;-85
2023/10/23 08:52:41;;;;;;;2.25;0.85;;;20.60;99.90;;;;;;5079133;28;20232;-81
2023/10/23 08:55:13;;;;;;;2.50;0.80;;;20.60;99.90;;;;;;5075772;28;20202;-85
2023/10/23 08:57:49;;;;;;;2.13;0.50;;;20.60;99.90;;;;;;5081767;28;20200;-78
2023/10/23 09:00:22;;;;;;;3.10;0.90;;;20.50;99.90;;;;;;5076764;28;20228;-81
2023/10/23 09:02:54;;;;;;;3.47;0.80;;;20.50;99.90;;;;;;5084035;28;20196;-86
2023/10/23 09:05:25;;;;;;;2.85;0.95;;;20.50;99.90;;;;;;5081740;28;20199;-85
2023/10/23 09:07:55;;;;;;;2.20;0.70;;;20.40;99.90;;;;;;5075276;28;20213;-77
2023/10/23 09:10:27;;;;;;;3.40;1.00;;;20.40;99.90;;;;;;5078906;28;20651;-77
2023/10/23 09:13:00;;;;;;;2.58;1.13;;;20.40;99.90;;;;;;5076535;28;20200;-86
2023/10/23 09:15:33;;;;;;;2.60;1.20;;;20.40;99.90;;;;;;5084078;28;20196;-78
2023/10/23 09:18:03;;;;;;;2.03;0.80;;;20.40;99.90;;;;;;5093185;28;20269;-79
2023/10/23 09:20:34;;;;;;;1.60;0.82;;;20.40;99.90;;;;;;5082637;28;20199;-78
2023/10/23 09:23:05;;;;;;;4.70;1.20;;;20.30;99.90;;;;;;5075067;28;20195;-82
2023/10/23 09:25:36;;;;;;;2.92;0.95;;;20.40;99.90;;;;;;5076449;28;20215;-78
2023/10/23 09:28:13;;;;;;;5.65;1.00;;;20.30;99.90;;;;;;5078194;28;20569;-78
2023/10/23 09:30:46;;;;;;;6.15;1.90;;;20.30;99.90;;;;;;5078095;28;20203;-86
2023/10/23 09:33:17;;;;;;;3.40;1.00;;;20.30;99.90;;;;;;5075056;28;20275;-84
2023/10/23 09:35:48;;;;;;;2.88;0.73;;;20.20;99.90;;;;;;5078781;28;20240;-83
2023/10/23 09:38:20;;;;;;;2.92;0.80;;;20.20;99.90;;;;;;5077528;28;20295;-80
2023/10/23 09:40:51;;;;;;;1.52;0.73;;;20.20;99.90;;;;;;5078238;28;20205;-85
2023/10/23 09:43:23;;;;;;;3.00;0.73;;;20.20;99.90;;;;;;5077614;28;20228;-81
2023/10/23 09:45:58;;;;;;;3.45;0.90;;;20.20;99.90;;;;;;5082909;28;20205;-81
2023/10/23 09:48:30;;;;;;;1.90;0.65;;;20.20;99.90;;;;;;5083270;28;20212;-77
2023/10/23 09:51:03;;;;;;;3.70;0.90;;;20.20;99.90;;;;;;5085242;28;20211;-81
2023/10/23 09:53:35;;;;;;;3.08;0.80;;;20.10;99.90;;;;;;5081277;28;20201;-78
2023/10/23 09:56:07;;;;;;;1.88;0.70;;;20.10;99.90;;;;;;5084855;28;20252;-82
2023/10/23 09:58:41;;;;;;;1.60;0.70;;;20.10;99.90;;;;;;5086057;28;20279;-82
2023/10/23 10:01:14;;;;;;;2.25;0.95;;;20.10;99.90;;;;;;5084302;28;20264;-84
2023/10/23 10:03:48;;;;;;;3.17;0.70;;;20.10;99.90;;;;;;5081662;28;20283;-87
2023/10/23 10:06:24;;;;;;;2.10;0.90;;;20.10;99.90;;;;;;5083401;28;20200;-79
2023/10/23 10:08:57;;;;;;;3.33;0.95;;;20.10;99.90;;;;;;5080366;28;20338;-86
2023/10/23 10:11:28;;;;;;;5.25;0.90;;;20.00;99.90;;;;;;5082848;28;20199;-85
2023/10/23 10:13:59;;;;;;;3.63;0.70;;;20.00;99.90;;;;;;5075192;28;20583;-83
2023/10/23 10:16:34;;;;;;;3.30;0.70;;;20.00;99.90;;;;;;5085915;28;20193;-81
2023/10/23 10:19:05;;;;;;;2.25;0.65;;;19.90;99.90;;;;;;5079118;28;20234;-86
2023/10/23 10:21:53;;;;;;;3.88;0.70;;;19.90;99.90;;;;;;5082479;28;20201;-86
2023/10/23 10:24:25;;;;;;;3.33;0.80;;;19.90;99.90;;;;;;5076828;28;20309;-78
2023/10/23 10:26:56;;;;;;;2.58;0.60;;;19.80;99.90;;;;;;5076043;28;20276;-77
2023/10/23 10:29:31;;;;;;;2.88;0.90;;;19.90;99.90;;;;;;5082117;28;20594;-83
2023/10/23 10:32:09;;;;;;;1.80;0.60;;;19.90;99.90;;;;;;5079771;28;20283;-85
2023/10/23 10:34:48;;;;;;;1.25;0.55;;;19.80;99.90;;;;;;5079272;28;20208;-81
2023/10/23 10:37:21;;;;;;;3.10;0.63;;;19.80;99.90;;;;;;5080275;28;20279;-80
2023/10/23 10:40:11;;;;;;;2.85;0.80;;;19.80;99.90;;;;;;5079234;28;20280;-79
2023/10/23 10:42:43;;;;;;;6.18;0.98;;;19.90;99.90;;;;;;5083460;28;20600;-76
2023/10/23 10:45:20;;;;;;;2.97;0.88;;;19.80;99.90;;;;;;5074049;28;20200;-77
2023/10/23 10:47:54;;;;;;;6.15;0.95;;;19.70;99.90;;;;;;5075270;28;20200;-80
2023/10/23 10:50:38;;;;;;;3.03;0.80;;;19.80;99.90;;;;;;5087238;28;20200;-82
2023/10/23 10:53:10;;;;;;;3.97;1.00;;;19.80;99.90;;;;;;5084990;28;20200;-81
2023/10/23 10:55:42;;;;;;;2.97;0.90;;;19.70;99.90;;;;;;5085654;28;20680;-82
2023/10/23 10:58:14;;;;;;;2.05;0.70;;;19.70;99.90;;;;;;5091221;28;20263;-82
2023/10/23 11:00:45;;;;;;;2.45;0.77;;;19.70;99.90;;;;;;5086788;28;20966;-86
2023/10/23 11:03:19;;;;;;;4.85;1.05;;;19.70;99.90;;;;;;5092431;28;20193;-88
2023/10/23 11:05:51;;;;;;;3.83;0.85;;;19.70;99.90;;;;;;5081953;28;20254;-84
2023/10/23 11:08:23;;;;;;;3.75;0.90;;;19.70;99.90;;;;;;5087756;28;20220;-80
2023/10/23 11:10:54;;;;;;;3.22;0.90;;;19.70;99.90;;;;;;5094312;28;20670;-83
2023/10/23 11:13:24;;;;;;;5.35;0.93;;;19.70;99.90;;;;;;5090693;28;20207;-83
2023/10/23 11:15:58;;;;;;;2.17;0.88;;;19.70;99.90;;;;;;5092486;28;20197;-85
2023/10/23 11:18:31;;;;;;;5.75;1.00;;;19.80;99.90;;;;;;5101576;28;20203;-85
2023/10/23 11:21:03;;;;;;;2.00;0.75;;;19.70;99.90;;;;;;5091470;28;20193;-84
2023/10/23 11:23:34;;;;;;;5.18;1.13;;;19.60;99.90;;;;;;5088403;28;20201;-77
2023/10/23 11:26:06;;;;;;;4.90;0.95;;;19.70;99.90;;;;;;5078065;28;20300;-81
2023/10/23 11:28:36;;;;;;;4.13;0.98;;;19.70;99.90;;;;;;5083538;28;20224;-85
2023/10/23 11:31:07;;;;;;;7.28;0.80;;;19.70;99.90;;;;;;5086680;28;20199;-87
2023/10/23 11:33:40;;;;;;;5.75;1.17;;;19.70;99.90;;;;;;5084786;28;20232;-81
2023/10/23 11:36:15;;;;;;;1.25;0.60;;;19.70;99.90;;;;;;5078706;28;20238;-81
2023/10/23 11:38:48;;;;;;;5.20;1.00;;;19.60;99.90;;;;;;5079796;28;20200;-85
2023/10/23 11:41:19;;;;;;;3.83;0.80;;;19.60;99.90;;;;;;5076123;28;20314;-82
2023/10/23 11:43:50;;;;;;;5.43;0.80;;;19.60;99.90;;;;;;5090276;28;20606;-86
2023/10/23 11:46:21;;;;;;;3.17;0.95;;;19.60;99.90;;;;;;5082740;28;20200;-82
2023/10/23 11:48:54;;;;;;;4.78;0.77;;;19.50;99.90;;;;;;5094664;28;20748;-88
2023/10/23 11:51:25;;;;;;;3.33;0.60;;;19.50;99.90;;;;;;5089625;28;20649;-83
2023/10/23 11:53:58;;;;;;;5.25;0.77;;;19.50;99.90;;;;;;5085421;28;20633;-84
2023/10/23 11:56:30;;;;;;;4.85;0.80;;;19.50;99.90;;;;;;5087404;28;20188;-82
2023/10/23 11:59:01;;;;;;;5.78;0.90;;;19.50;99.90;;;;;;5084531;28;20242;-82
2023/10/23 12:01:31;;;;;;;3.60;0.98;;;19.50;99.90;;;;;;5078506;28;20208;-81
2023/10/23 12:04:05;;;;;;;4.03;0.80;;;19.40;99.90;;;;;;5077786;28;20207;-79
2023/10/23 12:06:36;;;;;;;2.85;0.77;;;19.40;99.90;;;;;;5083363;28;20204;-83
2023/10/23 12:09:09;;;;;;;3.35;0.80;;;19.40;99.90;;;;;;5080028;28;20702;-82
2023/10/23 12:11:40;;;;;;;1.95;0.80;;;19.40;99.90;;;;;;5076650;28;20197;-85
2023/10/23 12:14:11;;;;;;;4.47;1.05;;;19.30;99.90;;;;;;5076342;28;20255;-85
2023/10/23 12:16:43;;;;;;;3.22;0.95;;;19.40;99.90;;;;;;5090458;28;20631;-85
2023/10/23 12:19:16;;;;;;;5.75;0.90;;;19.30;99.90;;;;;;5085468;28;20197;-79
2023/10/23 12:21:47;;;;;;;2.65;0.88;;;19.20;99.90;;;;;;5076779;28;20204;-82
2023/10/23 12:24:21;;;;;;;5.38;0.75;;;19.20;99.90;;;;;;5079092;28;20196;-85
2023/10/23 12:26:52;;;;;;;2.53;0.77;;;19.20;99.90;;;;;;5080506;28;20269;-83
2023/10/23 12:29:24;;;;;;;2.25;0.60;;;19.20;99.90;;;;;;5076234;28;20213;-77
2023/10/23 12:31:55;;;;;;;3.88;0.98;;;19.20;99.90;;;;;;5085228;28;20204;-84
2023/10/23 12:34:30;;;;;;;3.63;0.73;;;19.10;99.90;;;;;;5081316;28;20629;-85
2023/10/23 12:37:01;;;;;;;3.35;0.90;;;19.20;99.90;;;;;;5079872;28;20204;-84
2023/10/23 12:39:32;;;;;;;4.75;0.90;;;19.10;99.90;;;;;;5077262;28;20307;-86
2023/10/23 12:42:03;;;;;;;6.10;1.10;;;19.10;99.90;;;;;;5082366;28;20200;-85
2023/10/23 12:44:34;;;;;;;2.85;0.80;;;19.00;99.90;;;;;;5088783;28;20193;-87
2023/10/23 12:47:08;;;;;;;3.92;0.85;;;19.00;99.90;;;;;;5090937;28;20602;-85
2023/10/23 12:49:42;;;;;;;3.25;0.90;;;19.00;99.90;;;;;;5086824;28;20300;-85
2023/10/23 12:52:13;;;;;;;2.78;0.73;;;19.00;99.90;;;;;;5076014;28;20200;-75
2023/10/23 12:54:44;;;;;;;4.03;0.80;;;18.90;99.90;;;;;;5077968;28;20231;-75
2023/10/23 12:57:15;;;;;;;3.15;0.70;;;18.90;99.90;;;;;;5085576;28;20199;-80
2023/10/23 12:59:45;;;;;;;3.60;0.90;;;18.90;99.90;;;;;;5091804;28;20224;-78
2023/10/23 13:02:16;;;;;;;3.30;0.90;;;18.90;99.90;;;;;;5082423;28;20231;-76
2023/10/23 13:04:49;;;;;;;5.20;1.02;;;18.90;99.90;;;;;;5085210;28;20198;-74
2023/10/23 13:07:20;;;;;;;3.60;0.80;;;18.80;99.90;;;;;;5074851;28;20198;-73
2023/10/23 13:09:51;;;;;;;4.53;0.90;;;18.80;99.90;;;;;;5076923;28;20316;-74
2023/10/23 13:12:21;;;;;;;5.28;0.90;;;19.00;99.90;;;;;;5088283;28;20220;-73